メインページ
METAR-TAF:

METAR-TAF

空港 :

ホルヘ・チャベス国際空港

リマ, ペルー

緯度: 12-00S, 経度: 077-07W, 海抜: 12m

現時点の気象観測

当レポートは12分前の02:00(UTC)に作成
南/南東の風 9kt
気温 22°C
湿度 88%
気圧 1013 hPa
視程10km以上
高度1200ftの雲はほとんどない
高度23000ftの千切れ雲あり

METAR: SPJC 210200Z 16009KT 9999 FEW012 BKN230 22/20 Q1013 NOSIG RMK PP000

時間: 21:12 (02:12 UTC)

予報

当レポートは3時間12分前の23:00(UTC)に作成
予報は21日の 00時(UTC)から 21日の 24時(UTC)まで有効
の風 10kt
視程10km以上
高度1200ftの雲は散在している
高度17000ftの千切れ雲あり
21日の 0600時(UTC)から
の風 5kt
視程10km以上
高度1200ftの曇り
21日の 10時(UTC)から 21日の 13時(UTC)まで一時的に
高度900ftの曇り
21日の 13時(UTC)から 21日の 15時(UTC)まで徐々に
高度1800ftの千切れ雲あり
21日の 1800時(UTC)から
の風 10kt
視程10km以上
高度1700ftの雲はほとんどない
高度15000ftの雲は散在している

TAF: SPJC 202300Z 2100/2124 18010KT 9999 SCT012 BKN170 TX26/2120Z TN20/2111Z FM210600 17005KT 9999 OVC012 TEMPO 2110/2113 OVC009 BECMG 2113/2115 BKN018 FM211800 18010KT 9999 FEW017 SCT150

4,000以上の空港の気象観測と天気予報(METAR報とTAF報)

利用可能な観測所は地図上に黄色い丸と赤い丸で示す。

丸の上にカーソルを重ねると観測所名を参照できる。

次にクリックすると気象観測と天気予報を参照できる。

マップの切り替え:黒色「×」印の緑ボタンをクリックして拡大、「-」印の緑ボタンをクリックして縮小、緑色の三角印をクリックして隣りの地図に切り替え


METAR-TAF: